Time;durP1;ratioP1;P1;durP2;ratioP2;P2;SDS_P1;SDS_P2;PMS_P1;PMS_P2;Temp;Humidity;BMP_temperature;BMP_pressure;BME280_temperature;BME280_humidity;BME280_pressure;Samples;Min_cycle;Max_cycle;Signal;HPM_P1;HPM_P2
2023/03/27 00:02:03;;;;;;;8.02;7.25;;;;;;;;;;10185185;28;20504;-77
2023/03/27 00:07:04;;;;;;;11.50;10.18;;;;;;;;;;10181997;28;20044;-77
2023/03/27 00:11:57;;;;;;;15.95;7.90;;;;;;;;;;10191668;28;20047;-76
2023/03/27 00:16:51;;;;;;;10.57;6.65;;;;;;;;;;10163645;28;20044;-77
2023/03/27 00:21:44;;;;;;;10.80;6.00;;;;;;;;;;10192853;28;20101;-77
2023/03/27 00:26:39;;;;;;;11.35;6.07;;;;;;;;;;10191850;28;20421;-78
2023/03/27 00:31:34;;;;;;;8.32;6.50;;;;;;;;;;10193005;28;20043;-78
2023/03/27 00:36:30;;;;;;;7.97;6.18;;;;;;;;;;10193295;28;20123;-77
2023/03/27 00:41:23;;;;;;;6.65;5.85;;;;;;;;;;10177309;28;20481;-77
2023/03/27 00:46:30;;;;;;;6.95;5.07;;;;;;;;;;10191757;28;20059;-77
2023/03/27 00:51:24;;;;;;;6.97;5.35;;;;;;;;;;10170692;28;20090;-77
2023/03/27 00:56:17;;;;;;;7.07;5.18;;;;;;;;;;10180906;28;20051;-77
2023/03/27 01:01:12;;;;;;;6.90;5.75;;;;;;;;;;10190943;28;20054;-75
2023/03/27 01:06:07;;;;;;;5.20;4.63;;;;;;;;;;10161670;28;20044;-76
2023/03/27 01:11:40;;;;;;;6.95;5.43;;;;;;;;;;10157048;28;20627;-75
2023/03/27 01:17:09;;;;;;;8.38;6.30;;;;;;;;;;10025910;28;20045;-76
2023/03/27 01:22:23;;;;;;;5.90;5.33;;;;;;;;;;10149139;28;20044;-76
2023/03/27 01:27:25;;;;;;;9.20;5.85;;;;;;;;;;10175013;28;20052;-77
2023/03/27 01:32:38;;;;;;;6.03;5.43;;;;;;;;;;10182288;28;20477;-76
2023/03/27 01:37:52;;;;;;;5.22;4.68;;;;;;;;;;10203897;28;20127;-76
2023/03/27 01:42:49;;;;;;;5.68;5.18;;;;;;;;;;10184073;28;20047;-75
2023/03/27 01:47:50;;;;;;;7.47;5.78;;;;;;;;;;10155069;28;20055;-77
2023/03/27 01:52:49;;;;;;;6.15;5.55;;;;;;;;;;10184465;28;20462;-76
2023/03/27 01:57:48;;;;;;;6.93;5.38;;;;;;;;;;10172318;28;20150;-76
2023/03/27 02:03:08;;;;;;;6.70;6.00;;;;;;;;;;10174768;28;20044;-76
2023/03/27 02:08:21;;;;;;;7.20;4.78;;;;;;;;;;10188770;28;20050;-77
2023/03/27 02:13:23;;;;;;;6.60;3.58;;;;;;;;;;10154472;28;20501;-75
2023/03/27 02:18:23;;;;;;;7.45;4.60;;;;;;;;;;10159129;28;20462;-74
2023/03/27 02:23:17;;;;;;;5.22;4.72;;;;;;;;;;10181014;28;20512;-74
2023/03/27 02:28:40;;;;;;;5.28;4.53;;;;;;;;;;10174096;28;20040;-74
2023/03/27 02:33:41;;;;;;;8.18;4.60;;;;;;;;;;10181795;28;20504;-74
2023/03/27 02:38:43;;;;;;;4.78;4.38;;;;;;;;;;10174631;28;20044;-74
2023/03/27 02:44:16;;;;;;;4.55;3.92;;;;;;;;;;10165132;28;20463;-74
2023/03/27 02:49:28;;;;;;;4.40;2.97;;;;;;;;;;10148156;28;20046;-74
2023/03/27 02:54:26;;;;;;;8.35;3.45;;;;;;;;;;10158897;28;20142;-75
2023/03/27 02:59:24;;;;;;;6.63;3.60;;;;;;;;;;10157797;28;20126;-75
2023/03/27 03:04:29;;;;;;;4.40;3.15;;;;;;;;;;10180740;28;20055;-74
2023/03/27 03:09:23;;;;;;;5.38;3.88;;;;;;;;;;10197683;28;20054;-75
2023/03/27 03:14:29;;;;;;;5.65;4.57;;;;;;;;;;10166510;28;20043;-74
2023/03/27 03:19:26;;;;;;;4.05;3.67;;;;;;;;;;10176957;28;20044;-74
2023/03/27 03:24:20;;;;;;;3.45;3.15;;;;;;;;;;10184178;28;20044;-75
2023/03/27 03:29:14;;;;;;;5.50;3.97;;;;;;;;;;10167995;28;20450;-74
2023/03/27 03:34:17;;;;;;;4.82;3.78;;;;;;;;;;10178347;28;20071;-75
2023/03/27 03:39:14;;;;;;;4.10;2.75;;;;;;;;;;10167616;28;20064;-75
2023/03/27 03:44:11;;;;;;;6.50;2.95;;;;;;;;;;10185159;28;20062;-75
2023/03/27 03:49:05;;;;;;;4.80;2.97;;;;;;;;;;10180705;28;20482;-74
2023/03/27 03:54:00;;;;;;;7.80;3.25;;;;;;;;;;10185479;28;20048;-74
2023/03/27 03:58:53;;;;;;;9.48;4.68;;;;;;;;;;10168334;28;20067;-74
2023/03/27 04:03:47;;;;;;;6.90;3.65;;;;;;;;;;10167108;28;20047;-74
2023/03/27 04:08:42;;;;;;;12.70;5.68;;;;;;;;;;10184269;28;20044;-74
2023/03/27 04:13:53;;;;;;;7.70;5.57;;;;;;;;;;10167085;28;20111;-74
2023/03/27 04:19:01;;;;;;;10.68;5.68;;;;;;;;;;10182232;28;20461;-74
2023/03/27 04:24:01;;;;;;;9.82;6.75;;;;;;;;;;10177629;28;20056;-74
2023/03/27 04:29:10;;;;;;;10.32;6.50;;;;;;;;;;10180701;28;20130;-74
2023/03/27 04:34:23;;;;;;;10.65;8.85;;;;;;;;;;10185623;28;20070;-75
2023/03/27 04:39:45;;;;;;;10.68;8.30;;;;;;;;;;10164947;28;20524;-73
2023/03/27 04:44:39;;;;;;;10.88;7.57;;;;;;;;;;10171493;28;20048;-75
2023/03/27 04:49:39;;;;;;;8.45;7.00;;;;;;;;;;10175538;28;20048;-75
2023/03/27 04:54:42;;;;;;;12.80;6.70;;;;;;;;;;10165866;28;20060;-75
2023/03/27 04:59:35;;;;;;;11.60;7.03;;;;;;;;;;10189732;28;20089;-75
2023/03/27 05:04:47;;;;;;;12.07;6.97;;;;;;;;;;10191195;28;20097;-77
2023/03/27 05:09:44;;;;;;;10.85;7.78;;;;;;;;;;10179653;28;20051;-75
2023/03/27 05:14:40;;;;;;;8.20;5.78;;;;;;;;;;10178936;28;20055;-78
2023/03/27 05:19:48;;;;;;;8.60;6.55;;;;;;;;;;10170593;28;20047;-78
2023/03/27 05:24:41;;;;;;;9.65;6.72;;;;;;;;;;10172110;28;20052;-73
2023/03/27 05:29:37;;;;;;;13.45;6.07;;;;;;;;;;10172210;28;20074;-73
2023/03/27 05:34:41;;;;;;;7.00;5.47;;;;;;;;;;10157574;28;20083;-73
2023/03/27 05:39:38;;;;;;;8.05;5.60;;;;;;;;;;10175248;28;20136;-73
2023/03/27 05:44:34;;;;;;;7.38;6.07;;;;;;;;;;10172096;28;20052;-73
2023/03/27 05:49:29;;;;;;;12.82;7.20;;;;;;;;;;10166035;28;20076;-73
2023/03/27 05:54:33;;;;;;;13.35;10.75;;;;;;;;;;10169823;28;20488;-73
2023/03/27 05:59:33;;;;;;;56.92;14.73;;;;;;;;;;10179995;28;20048;-73
2023/03/27 06:04:41;;;;;;;23.35;14.63;;;;;;;;;;10202971;28;20043;-74
2023/03/27 06:09:38;;;;;;;19.10;13.07;;;;;;;;;;10188068;28;20048;-73
2023/03/27 06:14:51;;;;;;;15.02;12.93;;;;;;;;;;10178514;28;20059;-73
2023/03/27 06:20:09;;;;;;;19.70;12.20;;;;;;;;;;10174283;28;20058;-78
2023/03/27 06:25:05;;;;;;;16.92;11.05;;;;;;;;;;10187495;28;20468;-74
2023/03/27 06:29:59;;;;;;;15.77;11.30;;;;;;;;;;10171452;28;20051;-72
2023/03/27 06:34:53;;;;;;;18.20;12.20;;;;;;;;;;10202704;28;20048;-72
2023/03/27 06:40:27;;;;;;;14.43;11.13;;;;;;;;;;10169530;28;20105;-72
2023/03/27 06:45:31;;;;;;;20.73;11.60;;;;;;;;;;10176588;28;20527;-70
2023/03/27 06:50:40;;;;;;;19.88;11.35;;;;;;;;;;10181906;28;20508;-72
2023/03/27 06:55:38;;;;;;;15.33;10.67;;;;;;;;;;10182587;28;20176;-73
2023/03/27 07:00:34;;;;;;;16.15;11.40;;;;;;;;;;10187078;28;20052;-73
2023/03/27 07:05:40;;;;;;;17.77;11.95;;;;;;;;;;10171736;28;20076;-73
2023/03/27 07:10:34;;;;;;;14.07;11.90;;;;;;;;;;10186749;28;20087;-71
2023/03/27 07:15:26;;;;;;;14.05;11.93;;;;;;;;;;10179721;28;20110;-71
2023/03/27 07:20:20;;;;;;;13.75;8.77;;;;;;;;;;10172048;28;20471;-72
2023/03/27 07:25:13;;;;;;;16.17;9.38;;;;;;;;;;10152018;28;20469;-72
2023/03/27 07:30:12;;;;;;;23.00;10.13;;;;;;;;;;10171921;28;20044;-72
2023/03/27 07:35:07;;;;;;;13.07;8.63;;;;;;;;;;10179549;28;20054;-72
2023/03/27 07:40:21;;;;;;;11.73;8.07;;;;;;;;;;10182224;28;20454;-70
2023/03/27 07:46:05;;;;;;;15.00;8.00;;;;;;;;;;10184914;28;20062;-72
2023/03/27 07:51:01;;;;;;;7.70;6.95;;;;;;;;;;10177165;28;20051;-70
2023/03/27 07:56:08;;;;;;;6.82;6.03;;;;;;;;;;10172171;28;20657;-70
2023/03/27 08:01:03;;;;;;;4.75;4.30;;;;;;;;;;10167412;28;20058;-71
2023/03/27 08:05:58;;;;;;;6.88;4.03;;;;;;;;;;10178347;28;20044;-71
2023/03/27 08:10:59;;;;;;;41.07;7.37;;;;;;;;;;10155555;28;20048;-70
2023/03/27 08:16:29;;;;;;;4.43;3.03;;;;;;;;;;10168802;28;20123;-70
2023/03/27 08:21:25;;;;;;;5.78;2.55;;;;;;;;;;10166041;28;20044;-71
2023/03/27 08:26:19;;;;;;;4.03;2.30;;;;;;;;;;10171062;28;20050;-71
2023/03/27 08:31:22;;;;;;;1.98;1.40;;;;;;;;;;10165470;28;20056;-71
2023/03/27 08:36:21;;;;;;;2.08;1.80;;;;;;;;;;10173293;28;20059;-71
2023/03/27 08:41:38;;;;;;;4.07;1.48;;;;;;;;;;10167041;28;20500;-71
2023/03/27 08:46:49;;;;;;;2.95;1.85;;;;;;;;;;10153906;28;20064;-71
2023/03/27 08:51:56;;;;;;;2.92;0.60;;;;;;;;;;10191334;28;20401;-71
2023/03/27 08:56:50;;;;;;;1.23;0.40;;;;;;;;;;10174171;28;20079;-71
2023/03/27 09:02:07;;;;;;;1.35;0.50;;;;;;;;;;10189732;28;20051;-71
2023/03/27 09:07:23;;;;;;;0.50;0.50;;;;;;;;;;10146636;28;20711;-72
2023/03/27 09:12:35;;;;;;;1.95;0.50;;;;;;;;;;10158283;28;20143;-71
2023/03/27 09:17:37;;;;;;;3.97;0.47;;;;;;;;;;10173425;28;20131;-71
2023/03/27 09:22:43;;;;;;;1.20;0.40;;;;;;;;;;10158167;28;20052;-71
2023/03/27 09:27:42;;;;;;;1.20;0.60;;;;;;;;;;10190428;28;20048;-71
2023/03/27 09:33:04;;;;;;;0.30;0.30;;;;;;;;;;10183365;28;20515;-72
2023/03/27 09:38:05;;;;;;;1.27;0.35;;;;;;;;;;10148604;28;20094;-71
2023/03/27 09:43:07;;;;;;;1.95;0.45;;;;;;;;;;10159713;28;20052;-71
2023/03/27 09:48:06;;;;;;;4.38;1.00;;;;;;;;;;10182769;28;20385;-72
2023/03/27 09:53:17;;;;;;;4.20;0.77;;;;;;;;;;10163830;28;20522;-72
2023/03/27 09:58:31;;;;;;;3.03;0.60;;;;;;;;;;10154542;28;20106;-72
2023/03/27 10:03:27;;;;;;;0.75;0.35;;;;;;;;;;10167272;28;20095;-71
2023/03/27 10:08:43;;;;;;;0.57;0.30;;;;;;;;;;10171364;28;20505;-73
2023/03/27 10:14:06;;;;;;;0.75;0.70;;;;;;;;;;10172270;28;20055;-67
2023/03/27 10:18:59;;;;;;;4.40;0.40;;;;;;;;;;10171291;28;20040;-67
2023/03/27 10:24:05;;;;;;;1.33;0.30;;;;;;;;;;10172127;28;20048;-68
2023/03/27 10:29:31;;;;;;;0.30;0.30;;;;;;;;;;10168629;28;20488;-67
2023/03/27 10:34:31;;;;;;;1.67;0.40;;;;;;;;;;10201646;28;20048;-66
2023/03/27 10:39:51;;;;;;;8.23;0.40;;;;;;;;;;10146633;28;20136;-65
2023/03/27 10:44:57;;;;;;;3.67;0.40;;;;;;;;;;10155085;28;20071;-65
2023/03/27 10:50:18;;;;;;;2.33;0.65;;;;;;;;;;10151351;28;20180;-65
2023/03/27 10:55:11;;;;;;;0.65;0.20;;;;;;;;;;10157903;28;20052;-65
2023/03/27 11:00:17;;;;;;;0.55;0.43;;;;;;;;;;10151392;28;20468;-64
2023/03/27 11:05:27;;;;;;;1.38;0.38;;;;;;;;;;10137831;28;20483;-65
2023/03/27 11:10:39;;;;;;;0.30;0.30;;;;;;;;;;10151134;28;20066;-64
2023/03/27 11:15:41;;;;;;;3.50;0.47;;;;;;;;;;10156386;28;20064;-64
2023/03/27 11:21:15;;;;;;;1.75;0.40;;;;;;;;;;10152431;28;20048;-64
2023/03/27 11:26:23;;;;;;;5.82;0.50;;;;;;;;;;10148295;28;20048;-65
2023/03/27 11:31:44;;;;;;;2.70;0.50;;;;;;;;;;10164430;28;20441;-65
2023/03/27 11:36:51;;;;;;;1.73;0.50;;;;;;;;;;10134562;28;20078;-66
2023/03/27 11:41:57;;;;;;;1.48;0.73;;;;;;;;;;10144022;28;20573;-65
2023/03/27 11:46:56;;;;;;;2.63;0.50;;;;;;;;;;10175530;28;20080;-65
2023/03/27 11:52:05;;;;;;;2.85;0.50;;;;;;;;;;10167041;28;20512;-65
2023/03/27 11:57:03;;;;;;;1.38;0.30;;;;;;;;;;10186334;28;20100;-65
2023/03/27 12:02:44;;;;;;;0.50;0.38;;;;;;;;;;10181135;28;20082;-65
2023/03/27 12:08:23;;;;;;;0.70;0.40;;;;;;;;;;10170191;28;20052;-65
2023/03/27 12:13:50;;;;;;;2.60;0.38;;;;;;;;;;10114681;28;20048;-66
2023/03/27 12:19:05;;;;;;;7.25;0.40;;;;;;;;;;10162576;28;20496;-66
2023/03/27 12:24:42;;;;;;;3.67;0.30;;;;;;;;;;10168784;28;20047;-66
2023/03/27 12:30:22;;;;;;;0.60;0.20;;;;;;;;;;10176126;28;20642;-65
2023/03/27 12:35:20;;;;;;;2.15;0.30;;;;;;;;;;10149621;28;20451;-65
2023/03/27 12:40:26;;;;;;;0.70;0.22;;;;;;;;;;10161296;28;20492;-66
2023/03/27 12:45:26;;;;;;;0.75;0.20;;;;;;;;;;10167838;28;20490;-66
2023/03/27 12:50:25;;;;;;;2.47;0.30;;;;;;;;;;10201529;28;20044;-66
2023/03/27 12:55:19;;;;;;;0.55;0.30;;;;;;;;;;10149938;28;20090;-66
2023/03/27 13:00:24;;;;;;;1.65;0.20;;;;;;;;;;10179164;28;20040;-66
2023/03/27 13:05:25;;;;;;;0.20;0.20;;;;;;;;;;10143482;28;20041;-67
2023/03/27 13:10:57;;;;;;;0.57;0.20;;;;;;;;;;10149161;28;20263;-68
2023/03/27 13:16:10;;;;;;;2.17;0.40;;;;;;;;;;10041554;28;20103;-68
2023/03/27 13:21:33;;;;;;;4.18;0.80;;;;;;;;;;10154504;28;20040;-68
2023/03/27 13:26:58;;;;;;;0.57;0.20;;;;;;;;;;10184365;28;20052;-67
2023/03/27 13:32:39;;;;;;;0.30;0.30;;;;;;;;;;10191361;28;20451;-67
2023/03/27 13:37:50;;;;;;;1.25;0.32;;;;;;;;;;10168726;28;20451;-68
2023/03/27 13:43:15;;;;;;;1.38;0.30;;;;;;;;;;10166156;28;20050;-68
2023/03/27 13:48:41;;;;;;;1.00;0.30;;;;;;;;;;10176648;28;20412;-68
2023/03/27 13:53:49;;;;;;;0.25;0.20;;;;;;;;;;10165725;28;20048;-68
2023/03/27 13:59:07;;;;;;;1.23;0.40;;;;;;;;;;10160312;28;20048;-68
2023/03/27 14:04:12;;;;;;;0.40;0.30;;;;;;;;;;10165480;28;20079;-66
2023/03/27 14:09:51;;;;;;;0.22;0.22;;;;;;;;;;10184943;28;20123;-67
2023/03/27 14:15:33;;;;;;;2.92;0.55;;;;;;;;;;10167297;28;20476;-66
2023/03/27 14:20:51;;;;;;;4.28;0.40;;;;;;;;;;10166240;28;20051;-66
2023/03/27 14:26:20;;;;;;;0.43;0.25;;;;;;;;;;10172487;28;20105;-66
2023/03/27 14:31:18;;;;;;;0.20;0.20;;;;;;;;;;10170940;28;20055;-67
2023/03/27 14:36:40;;;;;;;;;;;;;;;;;;10166440;28;20138;-67
2023/03/27 14:41:51;;;;;;;5.18;0.38;;;;;;;;;;10162021;28;19927;-67
2023/03/27 14:46:47;;;;;;;1.75;0.50;;;;;;;;;;10109442;28;20080;-67
2023/03/27 14:51:41;;;;;;;1.10;0.40;;;;;;;;;;10093992;28;20103;-66
2023/03/27 14:56:47;;;;;;;1.65;0.50;;;;;;;;;;10098473;28;20161;-68
2023/03/27 15:01:44;;;;;;;1.95;0.30;;;;;;;;;;10099802;28;20450;-67
2023/03/27 15:06:40;;;;;;;0.88;0.47;;;;;;;;;;10104837;28;20057;-66
2023/03/27 15:11:37;;;;;;;2.17;0.43;;;;;;;;;;10120280;28;20497;-67
2023/03/27 15:16:37;;;;;;;2.55;0.40;;;;;;;;;;10088104;28;20064;-67
2023/03/27 15:21:48;;;;;;;2.15;0.40;;;;;;;;;;10103907;28;20060;-67
2023/03/27 15:26:42;;;;;;;7.18;0.35;;;;;;;;;;10104025;28;20452;-67
2023/03/27 15:31:37;;;;;;;4.43;0.40;;;;;;;;;;10101185;28;20053;-68
2023/03/27 15:36:33;;;;;;;1.35;0.30;;;;;;;;;;10100185;28;20064;-67
2023/03/27 15:41:31;;;;;;;1.20;0.32;;;;;;;;;;10089748;28;20055;-67
2023/03/27 15:46:25;;;;;;;0.38;0.38;;;;;;;;;;10092470;28;20084;-67
2023/03/27 15:51:18;;;;;;;0.30;0.30;;;;;;;;;;10085767;28;20052;-66
2023/03/27 15:56:26;;;;;;;0.60;0.40;;;;;;;;;;10076877;28;20052;-66
2023/03/27 16:01:21;;;;;;;;;;;;;;;;;;10074260;28;20751;-66
2023/03/27 16:06:48;;;;;;;2.40;0.50;;;;;;;;;;10091459;28;19956;-66
2023/03/27 16:11:47;;;;;;;0.70;0.40;;;;;;;;;;10083006;28;20053;-66
2023/03/27 16:16:41;;;;;;;;;;;;;;;;;;10097739;28;20044;-66
2023/03/27 16:21:36;;;;;;;3.67;1.80;;;;;;;;;;10095941;28;19928;-66
2023/03/27 16:26:30;;;;;;;1.95;0.63;;;;;;;;;;10096193;28;20045;-66
2023/03/27 16:31:24;;;;;;;0.30;0.30;;;;;;;;;;10100069;28;20045;-66
2023/03/27 16:36:29;;;;;;;0.63;0.40;;;;;;;;;;10103653;28;20056;-66
2023/03/27 16:41:22;;;;;;;1.30;0.52;;;;;;;;;;10103975;28;20552;-66
2023/03/27 16:46:38;;;;;;;1.95;0.52;;;;;;;;;;10144586;28;20106;-65
2023/03/27 16:51:31;;;;;;;0.68;0.68;;;;;;;;;;10182997;28;20058;-66
2023/03/27 16:56:25;;;;;;;2.40;0.60;;;;;;;;;;10187207;28;20054;-66
2023/03/27 17:01:58;;;;;;;2.97;0.60;;;;;;;;;;10185103;28;20060;-65
2023/03/27 17:07:10;;;;;;;0.50;0.43;;;;;;;;;;10192558;28;20144;-65
2023/03/27 17:12:21;;;;;;;1.52;0.60;;;;;;;;;;10192830;28;20048;-67
2023/03/27 17:17:14;;;;;;;2.40;0.60;;;;;;;;;;10191299;28;20051;-66
2023/03/27 17:22:07;;;;;;;0.45;0.45;;;;;;;;;;10199131;28;20048;-63
2023/03/27 17:27:01;;;;;;;2.47;0.50;;;;;;;;;;10196953;28;20047;-64
2023/03/27 17:31:59;;;;;;;0.60;0.60;;;;;;;;;;10199426;28;20543;-64
2023/03/27 17:36:53;;;;;;;1.60;0.80;;;;;;;;;;10180521;28;20127;-67
2023/03/27 17:41:47;;;;;;;1.08;0.70;;;;;;;;;;10195286;28;20127;-65
2023/03/27 17:46:41;;;;;;;0.73;0.60;;;;;;;;;;10187496;28;20117;-65
2023/03/27 17:51:35;;;;;;;1.60;0.80;;;;;;;;;;10188430;28;20110;-66
2023/03/27 17:56:29;;;;;;;0.85;0.85;;;;;;;;;;10178968;28;20078;-66
2023/03/27 18:01:24;;;;;;;0.80;0.77;;;;;;;;;;10179511;28;20101;-65
2023/03/27 18:06:18;;;;;;;1.35;0.98;;;;;;;;;;10186870;28;20058;-65
2023/03/27 18:11:13;;;;;;;8.07;1.10;;;;;;;;;;10186108;28;20071;-66
2023/03/27 18:16:09;;;;;;;1.38;1.02;;;;;;;;;;10178672;28;20044;-67
2023/03/27 18:21:03;;;;;;;2.50;1.55;;;;;;;;;;10170485;28;20052;-67
2023/03/27 18:25:57;;;;;;;1.05;0.80;;;;;;;;;;10185004;28;20032;-67
2023/03/27 18:31:22;;;;;;;0.80;0.80;;;;;;;;;;10176684;28;20093;-68
2023/03/27 18:36:23;;;;;;;1.05;1.00;;;;;;;;;;10182004;28;20408;-67
2023/03/27 18:41:19;;;;;;;1.88;1.25;;;;;;;;;;10182692;28;20123;-67
2023/03/27 18:46:15;;;;;;;3.67;1.00;;;;;;;;;;10171312;28;20074;-68
2023/03/27 18:51:09;;;;;;;1.70;1.20;;;;;;;;;;10176486;28;20401;-68
2023/03/27 18:56:03;;;;;;;2.90;1.10;;;;;;;;;;10176869;28;20071;-68
2023/03/27 19:00:56;;;;;;;3.35;1.25;;;;;;;;;;10175946;28;20091;-68
2023/03/27 19:05:51;;;;;;;2.53;1.00;;;;;;;;;;10176698;28;20062;-68
2023/03/27 19:10:44;;;;;;;2.90;1.02;;;;;;;;;;10179110;28;20468;-67
2023/03/27 19:15:42;;;;;;;2.20;1.20;;;;;;;;;;10156992;28;20051;-66
2023/03/27 19:20:55;;;;;;;2.72;0.90;;;;;;;;;;10188432;28;20058;-68
2023/03/27 19:26:18;;;;;;;12.20;1.20;;;;;;;;;;10165946;28;20060;-68
2023/03/27 19:31:12;;;;;;;3.15;0.90;;;;;;;;;;10178956;28;20047;-68
2023/03/27 19:36:08;;;;;;;2.38;0.80;;;;;;;;;;10177801;28;20070;-69
2023/03/27 19:41:03;;;;;;;2.05;1.10;;;;;;;;;;10178856;28;20052;-69
2023/03/27 19:45:58;;;;;;;0.80;0.80;;;;;;;;;;10167715;28;20052;-68
2023/03/27 19:51:07;;;;;;;2.45;1.45;;;;;;;;;;10175167;28;20519;-68
2023/03/27 19:56:08;;;;;;;1.65;0.90;;;;;;;;;;10171072;28;20052;-69
2023/03/27 20:01:03;;;;;;;2.88;1.27;;;;;;;;;;10162873;28;20040;-68
2023/03/27 20:05:59;;;;;;;1.30;1.20;;;;;;;;;;10178441;28;20645;-68
2023/03/27 20:11:00;;;;;;;0.93;0.90;;;;;;;;;;10175225;28;20078;-68
2023/03/27 20:15:54;;;;;;;1.13;1.02;;;;;;;;;;10170329;28;20044;-68
2023/03/27 20:20:54;;;;;;;3.65;1.38;;;;;;;;;;10175126;28;20494;-70
2023/03/27 20:25:50;;;;;;;3.60;1.20;;;;;;;;;;10171230;28;20052;-69
2023/03/27 20:30:44;;;;;;;3.10;1.20;;;;;;;;;;10187941;28;20042;-67
2023/03/27 20:35:40;;;;;;;2.10;1.42;;;;;;;;;;10178522;28;20411;-68
2023/03/27 20:40:44;;;;;;;3.58;1.27;;;;;;;;;;10162932;28;20045;-67
2023/03/27 20:45:51;;;;;;;3.40;1.23;;;;;;;;;;10164592;28;20057;-75
2023/03/27 20:50:54;;;;;;;2.33;1.27;;;;;;;;;;10174547;28;20048;-67
2023/03/27 20:55:47;;;;;;;6.78;1.38;;;;;;;;;;10173732;28;20046;-67
2023/03/27 21:00:52;;;;;;;1.30;1.20;;;;;;;;;;10173917;28;20048;-68
2023/03/27 21:05:45;;;;;;;2.17;1.20;;;;;;;;;;10153183;28;20051;-67
2023/03/27 21:10:39;;;;;;;1.30;1.20;;;;;;;;;;10169981;28;20048;-68
2023/03/27 21:15:32;;;;;;;2.03;1.50;;;;;;;;;;10174277;28;20051;-67
2023/03/27 21:20:27;;;;;;;2.70;1.50;;;;;;;;;;10174841;28;21048;-68
2023/03/27 21:25:21;;;;;;;2.30;1.30;;;;;;;;;;10181924;28;20044;-68
2023/03/27 21:30:22;;;;;;;2.88;1.60;;;;;;;;;;10163601;28;20048;-68
2023/03/27 21:35:36;;;;;;;1.13;1.08;;;;;;;;;;10180632;28;20052;-68
2023/03/27 21:40:33;;;;;;;1.20;1.00;;;;;;;;;;10178089;28;20068;-68
2023/03/27 21:45:27;;;;;;;1.70;1.20;;;;;;;;;;10177728;28;20056;-68
2023/03/27 21:50:21;;;;;;;1.30;1.20;;;;;;;;;;10173953;28;20118;-68
2023/03/27 21:55:18;;;;;;;1.60;1.20;;;;;;;;;;10169869;28;20040;-68
2023/03/27 22:00:13;;;;;;;1.40;0.90;;;;;;;;;;10179407;28;20094;-68
2023/03/27 22:05:08;;;;;;;1.63;1.20;;;;;;;;;;10178993;28;20044;-68
2023/03/27 22:10:05;;;;;;;1.67;1.30;;;;;;;;;;10186658;28;20044;-68
2023/03/27 22:14:58;;;;;;;1.58;1.48;;;;;;;;;;10185503;28;20083;-68
2023/03/27 22:19:53;;;;;;;1.90;1.52;;;;;;;;;;10180243;28;20075;-68
2023/03/27 22:24:46;;;;;;;1.48;1.08;;;;;;;;;;10180915;28;20056;-68
2023/03/27 22:29:40;;;;;;;1.23;1.15;;;;;;;;;;10187660;28;20054;-69
2023/03/27 22:34:33;;;;;;;5.85;1.10;;;;;;;;;;10187365;28;20439;-68
2023/03/27 22:39:27;;;;;;;1.65;1.25;;;;;;;;;;10187210;28;20082;-68
2023/03/27 22:44:20;;;;;;;1.35;1.20;;;;;;;;;;10184901;28;20143;-68
2023/03/27 22:49:14;;;;;;;1.30;1.20;;;;;;;;;;10183091;28;20050;-68
2023/03/27 22:54:08;;;;;;;4.05;1.30;;;;;;;;;;10172198;28;20032;-67
2023/03/27 22:59:02;;;;;;;1.70;1.20;;;;;;;;;;10183710;28;20067;-66
2023/03/27 23:03:55;;;;;;;1.38;1.25;;;;;;;;;;10176478;28;20532;-67
2023/03/27 23:08:50;;;;;;;1.52;1.33;;;;;;;;;;10186342;28;20058;-66
2023/03/27 23:13:44;;;;;;;1.60;1.20;;;;;;;;;;10180185;28;20385;-67
2023/03/27 23:18:38;;;;;;;1.85;1.30;;;;;;;;;;10183278;28;20064;-67
2023/03/27 23:23:34;;;;;;;2.05;1.85;;;;;;;;;;10185191;28;20059;-67
2023/03/27 23:28:31;;;;;;;3.03;1.38;;;;;;;;;;10186685;28;20040;-66
2023/03/27 23:33:25;;;;;;;2.90;1.75;;;;;;;;;;10185661;28;20051;-66
2023/03/27 23:38:18;;;;;;;2.13;1.92;;;;;;;;;;10186217;28;20535;-67
2023/03/27 23:43:12;;;;;;;2.10;1.33;;;;;;;;;;10186535;28;20469;-66
2023/03/27 23:48:07;;;;;;;1.50;1.40;;;;;;;;;;10185959;28;20098;-67
2023/03/27 23:53:01;;;;;;;1.88;1.70;;;;;;;;;;10185866;28;20044;-67
2023/03/27 23:57:55;;;;;;;1.50;1.40;;;;;;;;;;10185637;28;20048;-66
